createdAt,value
2018-04-02T00:00:47.335Z,84.91
2018-04-02T00:01:58.402Z,85.10
2018-04-02T00:02:44.277Z,85.10
2018-04-02T00:04:16.338Z,85.00
2018-04-02T00:05:10.815Z,84.91
2018-04-02T00:06:21.470Z,85.10
2018-04-02T00:07:29.567Z,85.10
2018-04-02T00:08:23.634Z,84.91
2018-04-02T00:09:39.924Z,84.33
2018-04-02T00:10:43.516Z,84.52
2018-04-02T00:11:48.856Z,84.62
2018-04-02T00:12:50.184Z,84.52
2018-04-02T00:13:53.879Z,84.43
2018-04-02T00:15:04.842Z,85.10
2018-04-02T00:15:56.554Z,85.10
2018-04-02T00:17:12.543Z,84.91
2018-04-02T00:18:32.920Z,85.00
2018-04-02T00:19:28.729Z,84.81
2018-04-02T00:20:32.524Z,84.91
2018-04-02T00:22:44.417Z,84.24
2018-04-02T00:23:55.177Z,84.52
2018-04-02T00:25:11.158Z,84.62
2018-04-02T00:25:51.093Z,84.24
2018-04-02T00:28:14.153Z,85.00
2018-04-02T00:29:13.234Z,84.62
2018-04-02T00:30:13.753Z,84.24
2018-04-02T00:31:28.103Z,84.43
2018-04-02T00:32:34.041Z,84.72
2018-04-02T00:33:34.974Z,84.62
2018-04-02T00:34:55.048Z,84.43
2018-04-02T00:35:56.489Z,84.14
2018-04-02T00:36:51.785Z,84.14
2018-04-02T00:39:08.799Z,84.39
2018-04-02T00:40:11.980Z,84.72
2018-04-02T00:42:26.742Z,84.33
2018-04-02T00:43:34.532Z,84.24
2018-04-02T00:44:31.157Z,84.43
2018-04-02T00:45:42.121Z,84.43
2018-04-02T00:46:47.144Z,84.05
2018-04-02T00:47:45.206Z,84.39
2018-04-02T00:48:48.855Z,84.39
2018-04-02T00:49:59.787Z,84.14
2018-04-02T00:51:07.446Z,84.52
2018-04-02T00:52:28.857Z,84.39
2018-04-02T00:53:07.459Z,85.05
2018-04-02T00:57:25.715Z,84.95
2018-04-02T00:58:37.809Z,84.33
2018-04-02T00:59:55.327Z,84.29
2018-04-02T01:01:11.000Z,84.39
2018-04-02T01:02:12.648Z,84.01
2018-04-02T01:02:59.545Z,84.29
2018-04-02T01:04:15.525Z,84.01
2018-04-02T01:06:25.371Z,83.91
2018-04-02T01:08:29.069Z,83.62
2018-04-02T01:09:42.902Z,83.44
2018-04-02T01:10:56.528Z,83.62
2018-04-02T01:11:54.590Z,83.72
2018-04-02T01:13:02.522Z,83.62
2018-04-02T01:14:01.772Z,83.15
2018-04-02T01:15:09.562Z,83.06
2018-04-02T01:16:11.819Z,83.34
2018-04-02T01:17:10.805Z,83.34
2018-04-02T01:18:15.930Z,83.34
2018-04-02T01:22:48.316Z,83.34
2018-04-02T01:23:58.361Z,83.15
2018-04-02T01:25:02.668Z,82.87
2018-04-02T01:25:56.426Z,83.53
2018-04-02T01:27:10.667Z,83.82
2018-04-02T01:28:04.020Z,83.15
2018-04-02T01:29:21.845Z,83.25
2018-04-02T01:30:18.163Z,82.96
2018-04-02T01:31:35.886Z,83.44
2018-04-02T01:33:57.815Z,83.44
2018-04-02T01:35:03.983Z,83.15
2018-04-02T01:35:59.876Z,83.44
2018-04-02T01:36:53.636Z,83.20
2018-04-02T01:38:22.214Z,83.11
2018-04-02T01:39:43.320Z,83.59
2018-04-02T01:40:10.024Z,83.39
2018-04-02T01:41:23.975Z,83.20
2018-04-02T01:42:17.635Z,83.20
2018-04-02T01:44:15.805Z,83.78
2018-04-02T01:45:08.534Z,83.11
2018-04-02T01:47:06.404Z,83.30
2018-04-02T01:48:57.920Z,83.78
2018-04-02T01:51:40.942Z,83.68
2018-04-02T01:52:47.912Z,83.59
2018-04-02T01:53:57.237Z,84.06
2018-04-02T01:55:07.082Z,84.16
2018-04-02T01:55:58.683Z,83.78
2018-04-02T01:57:18.976Z,83.68
2018-04-02T01:58:06.277Z,83.68
2018-04-02T01:59:16.727Z,83.49
2018-04-02T02:00:27.593Z,83.39
2018-04-02T02:01:25.754Z,83.87
2018-04-02T02:02:41.940Z,83.78
2018-04-02T02:03:38.362Z,84.06
2018-04-02T02:04:37.754Z,84.01
2018-04-02T02:05:41.757Z,84.06
2018-04-02T02:07:02.447Z,84.63
2018-04-02T02:07:57.333Z,84.44
2018-04-02T02:09:26.429Z,84.30
2018-04-02T02:10:04.003Z,84.25
2018-04-02T02:11:14.354Z,83.54
2018-04-02T02:12:25.834Z,83.83
2018-04-02T02:13:34.235Z,84.01
2018-04-02T02:15:22.165Z,84.01
2018-04-02T02:16:12.136Z,84.11
2018-04-02T02:16:58.116Z,84.11
2018-04-02T02:18:16.962Z,84.30
2018-04-02T02:19:50.454Z,83.45
2018-04-02T02:20:46.573Z,83.54
2018-04-02T02:22:43.104Z,83.92
2018-04-02T02:23:52.946Z,83.83
2018-04-02T02:24:31.955Z,83.92
2018-04-02T02:26:15.585Z,83.92
2018-04-02T02:27:17.232Z,83.73
2018-04-02T02:29:13.149Z,84.68
2018-04-02T02:30:44.910Z,84.49
2018-04-02T02:31:17.775Z,84.30
2018-04-02T02:32:20.850Z,84.11
2018-04-02T02:33:23.518Z,84.11
2018-04-02T02:35:56.305Z,84.49
2018-04-02T02:36:41.049Z,84.01
2018-04-02T02:37:52.834Z,83.73
2018-04-02T02:39:00.624Z,83.83
2018-04-02T02:40:11.493Z,83.88
2018-04-02T02:41:10.469Z,84.40
2018-04-02T02:42:23.173Z,84.26
2018-04-02T02:43:21.031Z,84.26
2018-04-02T02:44:18.884Z,84.26
2018-04-02T02:45:22.682Z,84.40
2018-04-02T02:47:33.345Z,84.55
2018-04-02T02:48:55.162Z,84.45
2018-04-02T02:50:02.959Z,84.36
2018-04-02T02:50:46.780Z,84.74
2018-04-02T02:52:08.093Z,84.74
2018-04-02T02:53:08.402Z,84.74
2018-04-02T02:54:11.381Z,85.02
2018-04-02T02:55:13.228Z,84.74
2018-04-02T02:58:45.609Z,84.74
2018-04-02T02:59:45.621Z,85.02
2018-04-02T03:00:48.797Z,84.83
2018-04-02T03:01:45.218Z,84.83
2018-04-02T03:02:48.502Z,85.02
2018-04-02T03:04:15.036Z,85.11
2018-04-02T03:06:11.460Z,84.83
2018-04-02T03:07:06.961Z,84.64
2018-04-02T03:08:18.233Z,84.83
2018-04-02T03:09:23.362Z,84.64
2018-04-02T03:10:28.750Z,84.74
2018-04-02T03:11:38.020Z,84.74
2018-04-02T03:12:41.299Z,84.83
2018-04-02T03:13:43.367Z,84.74
2018-04-02T03:14:54.217Z,84.74
2018-04-02T03:15:55.965Z,84.74
2018-04-02T03:17:01.603Z,84.74
2018-04-02T03:18:06.423Z,84.83
2018-04-02T03:19:15.339Z,84.74
2018-04-02T03:21:23.954Z,84.64
2018-04-02T03:22:27.853Z,84.83
2018-04-02T03:23:36.872Z,85.02
2018-04-02T03:24:42.817Z,84.55
2018-04-02T03:25:42.312Z,84.17
2018-04-02T03:26:49.384Z,84.45
2018-04-02T03:27:57.276Z,84.55
2018-04-02T03:29:05.168Z,84.45
2018-04-02T03:30:12.959Z,84.41
2018-04-02T03:31:07.539Z,84.74
2018-04-02T03:32:17.279Z,85.55
2018-04-02T03:33:16.562Z,84.64
2018-04-02T03:34:24.969Z,85.11
2018-04-02T03:35:31.017Z,84.69
2018-04-02T03:36:40.033Z,85.30
2018-04-02T03:39:04.625Z,85.36
2018-04-02T03:39:49.375Z,85.26
2018-04-02T03:40:58.700Z,85.11
2018-04-02T03:42:09.258Z,85.30
2018-04-02T03:43:12.024Z,84.88
2018-04-02T03:44:15.615Z,85.36
2018-04-02T03:45:32.109Z,85.36
2018-04-02T03:47:33.146Z,85.26
2018-04-02T03:48:42.063Z,85.36
2018-04-02T03:49:47.189Z,85.30
2018-04-02T03:51:05.733Z,85.26
2018-04-02T03:51:58.469Z,85.36
2018-04-02T03:53:04.210Z,85.64
2018-04-02T03:54:09.235Z,85.26
2018-04-02T03:55:16.204Z,85.36
2018-04-02T03:56:20.514Z,85.36
2018-04-02T03:57:22.570Z,85.36
2018-04-02T03:58:30.560Z,85.26
2018-04-02T03:59:36.201Z,85.36
2018-04-02T04:00:45.116Z,85.26
2018-04-02T04:01:57.002Z,84.98
2018-04-02T04:02:52.605Z,85.55
2018-04-02T04:03:58.860Z,85.26
2018-04-02T04:04:56.512Z,84.59
2018-04-02T04:07:13.013Z,85.36
2018-04-02T04:08:18.137Z,85.07
2018-04-02T04:09:26.646Z,85.07
2018-04-02T04:10:24.501Z,85.55
2018-04-02T04:11:36.591Z,84.50
2018-04-02T04:12:45.304Z,84.78
2018-04-02T04:13:42.646Z,84.88
2018-04-02T04:15:59.352Z,85.55
2018-04-02T04:16:58.543Z,85.36
2018-04-02T04:18:11.448Z,86.11
2018-04-02T04:19:20.160Z,86.11
2018-04-02T04:20:16.174Z,86.21
2018-04-02T04:21:22.018Z,86.21
2018-04-02T04:22:37.897Z,86.11
2018-04-02T04:24:41.803Z,86.30
2018-04-02T04:25:46.110Z,86.44
2018-04-02T04:27:01.068Z,86.68
2018-04-02T04:28:59.544Z,86.49
2018-04-02T04:30:14.404Z,86.72
2018-04-02T04:31:10.925Z,86.44
2018-04-02T04:32:17.895Z,86.72
2018-04-02T04:33:31.522Z,86.44
2018-04-02T04:34:34.806Z,87.11
2018-04-02T04:35:35.121Z,86.72
2018-04-02T04:36:44.243Z,86.72
2018-04-02T04:37:49.059Z,86.82
2018-04-02T04:38:53.163Z,86.63
2018-04-02T04:39:53.578Z,86.91
2018-04-02T04:41:04.235Z,86.07
2018-04-02T04:42:14.278Z,85.68
2018-04-02T04:44:21.051Z,86.44
2018-04-02T04:45:27.516Z,86.54
2018-04-02T04:46:34.582Z,86.35
2018-04-02T04:47:36.431Z,85.78
2018-04-02T04:48:45.966Z,85.49
2018-04-02T04:49:49.143Z,85.78
2018-04-02T04:50:56.524Z,85.68
2018-04-02T04:52:05.748Z,85.68
2018-04-02T04:53:04.524Z,85.97
2018-04-02T04:54:11.085Z,85.68
2018-04-02T04:55:16.008Z,85.68
2018-04-02T04:56:20.725Z,85.59
2018-04-02T04:57:26.365Z,85.30
2018-04-02T04:58:30.671Z,85.40
2018-04-02T04:59:43.479Z,85.30
2018-04-02T05:00:45.022Z,85.21
2018-04-02T05:01:53.118Z,85.30
2018-04-02T05:02:54.866Z,84.92
2018-04-02T05:03:58.559Z,84.64
2018-04-02T05:05:01.537Z,84.26
2018-04-02T05:06:16.493Z,85.30
2018-04-02T05:07:15.067Z,84.83
2018-04-02T05:08:28.693Z,84.92
2018-04-02T05:09:24.915Z,84.64
2018-04-02T05:10:35.677Z,84.92
2018-04-02T05:11:37.521Z,84.92
2018-04-02T05:12:37.427Z,84.83
2018-04-02T05:13:43.781Z,84.83
2018-04-02T05:14:50.239Z,84.88
2018-04-02T05:16:05.606Z,84.98
2018-04-02T05:17:06.232Z,85.02
2018-04-02T05:18:08.078Z,84.88
2018-04-02T05:19:15.151Z,84.74
2018-04-02T05:20:24.067Z,85.02
2018-04-02T05:22:29.512Z,84.88
2018-04-02T05:23:37.400Z,84.78
2018-04-02T05:25:49.395Z,84.78
2018-04-02T05:26:56.059Z,84.83
2018-04-02T05:28:00.878Z,84.50
2018-04-02T05:29:03.853Z,84.50
2018-04-02T05:30:11.441Z,84.26
2018-04-02T05:31:11.957Z,84.64
2018-04-02T05:33:32.764Z,85.07
2018-04-02T05:34:28.669Z,85.07
2018-04-02T05:35:39.638Z,84.55
2018-04-02T05:36:43.020Z,84.78
2018-04-02T05:37:49.580Z,84.92
2018-04-02T05:39:03.719Z,85.02
2018-04-02T05:40:02.394Z,84.83
2018-04-02T05:41:13.469Z,85.40
2018-04-02T05:42:06.504Z,85.26
2018-04-02T05:43:22.281Z,85.07
2018-04-02T05:44:23.005Z,85.30
2018-04-02T05:45:27.628Z,85.40
2018-04-02T05:46:31.420Z,85.30
2018-04-02T05:47:42.689Z,85.11
2018-04-02T05:48:43.512Z,85.59
2018-04-02T05:49:48.128Z,85.02
2018-04-02T05:51:01.090Z,85.21
2018-04-02T05:52:08.213Z,85.30
2018-04-02T05:53:04.635Z,85.11
2018-04-02T05:54:08.698Z,85.49
2018-04-02T05:55:20.523Z,85.87
2018-04-02T05:56:21.961Z,85.21
2018-04-02T05:57:28.011Z,85.30
2018-04-02T05:58:30.990Z,85.68
2018-04-02T05:59:49.634Z,85.68
2018-04-02T06:00:51.277Z,85.59
2018-04-02T06:01:53.643Z,85.59
2018-04-02T06:02:59.076Z,85.68
2018-04-02T06:03:59.899Z,85.68
2018-04-02T06:05:08.749Z,85.40
2018-04-02T06:06:24.088Z,85.40
2018-04-02T06:07:18.250Z,85.40
2018-04-02T06:08:23.275Z,85.21
2018-04-02T06:09:28.811Z,85.68
2018-04-02T06:10:32.918Z,85.68
2018-04-02T06:11:39.681Z,85.68
2018-04-02T06:12:47.783Z,85.40
2018-04-02T06:13:47.168Z,85.78
2018-04-02T06:14:56.392Z,85.68
2018-04-02T06:16:05.131Z,86.72
2018-04-02T06:17:06.544Z,86.16
2018-04-02T06:18:21.398Z,86.16
2018-04-02T06:19:18.238Z,86.25
2018-04-02T06:20:27.044Z,85.87
2018-04-02T06:21:44.153Z,86.20
2018-04-02T06:22:37.093Z,86.96
2018-04-02T06:24:00.552Z,86.58
2018-04-02T06:24:44.379Z,86.39
2018-04-02T06:25:56.682Z,86.77
2018-04-02T06:27:05.490Z,86.49
2018-04-02T06:28:11.843Z,86.58
2018-04-02T06:31:28.353Z,87.05
2018-04-02T06:32:30.508Z,86.77
2018-04-02T06:33:41.062Z,86.77
2018-04-02T06:34:35.846Z,87.24
2018-04-02T06:35:55.925Z,87.15
2018-04-02T06:37:02.735Z,87.29
2018-04-02T06:39:16.228Z,87.19
2018-04-02T06:40:09.063Z,87.01
2018-04-02T06:41:24.328Z,86.82
2018-04-02T06:43:28.438Z,86.72
2018-04-02T06:44:45.337Z,86.53
2018-04-02T06:45:55.690Z,86.82
2018-04-02T06:47:06.037Z,86.15
2018-04-02T06:48:08.808Z,86.24
2018-04-02T06:48:50.794Z,86.63
2018-04-02T06:50:20.503Z,86.43
2018-04-02T06:52:32.185Z,85.58
2018-04-02T06:53:35.466Z,85.53
2018-04-02T06:54:52.882Z,85.34
2018-04-02T06:57:19.316Z,84.67
2018-04-02T06:59:17.181Z,84.58
2018-04-02T07:01:04.701Z,84.67
2018-04-02T07:03:12.395Z,84.58
2018-04-02T07:04:31.197Z,84.58
2018-04-02T07:05:04.318Z,84.20
2018-04-02T07:07:32.596Z,83.58
2018-04-02T07:08:31.679Z,83.58
2018-04-02T07:10:52.482Z,83.29
2018-04-02T07:13:48.412Z,83.58
2018-04-02T07:15:18.623Z,83.29
2018-04-02T07:16:11.869Z,83.29
2018-04-02T07:17:10.854Z,82.43
2018-04-02T07:18:12.502Z,82.24
2018-04-02T07:19:08.517Z,82.81
2018-04-02T07:21:27.062Z,82.15
2018-04-02T07:22:52.770Z,82.05
2018-04-02T07:23:35.272Z,81.67
2018-04-02T07:24:45.410Z,81.77
2018-04-02T07:25:46.035Z,81.67
2018-04-02T07:28:13.799Z,81.43
2018-04-02T07:30:12.582Z,81.52
2018-04-02T07:31:05.012Z,81.90
2018-04-02T07:32:24.074Z,81.71
2018-04-02T07:33:33.187Z,81.33
2018-04-02T07:34:34.016Z,80.47
2018-04-02T07:35:33.712Z,79.81
2018-04-02T07:37:42.329Z,79.81
2018-04-02T07:39:02.404Z,80.19
2018-04-02T07:41:03.963Z,80.13
2018-04-02T07:42:06.120Z,79.85
2018-04-02T07:43:14.417Z,80.80
2018-04-02T07:44:25.511Z,80.71
2018-04-02T07:48:44.146Z,78.71
2018-04-02T07:49:38.110Z,79.85
2018-04-02T07:50:40.913Z,79.38
2018-04-02T07:52:57.281Z,79.09
2018-04-02T07:54:09.679Z,82.08
2018-04-02T07:55:10.505Z,81.32
2018-04-02T07:56:10.000Z,79.41
2018-04-02T07:57:24.752Z,78.17
2018-04-02T07:58:20.252Z,76.27
2018-04-02T07:59:30.499Z,75.70
2018-04-02T08:00:41.158Z,75.70
2018-04-02T08:01:46.702Z,75.79
2018-04-02T08:03:56.437Z,74.37
2018-04-02T08:04:56.553Z,74.56
2018-04-02T08:06:07.611Z,75.04
2018-04-02T08:07:10.485Z,74.56
2018-04-02T08:08:32.616Z,74.56
2018-04-02T08:09:24.118Z,74.65
2018-04-02T08:10:20.234Z,73.51
2018-04-02T08:11:36.728Z,73.55
2018-04-02T08:12:40.115Z,74.12
2018-04-02T08:13:48.621Z,74.31
2018-04-02T08:14:56.827Z,74.31
2018-04-02T08:15:58.259Z,75.36
2018-04-02T08:16:55.297Z,75.84
2018-04-02T08:18:04.939Z,74.88
2018-04-02T08:19:05.243Z,75.07
2018-04-02T08:20:20.101Z,75.64
2018-04-02T08:21:18.281Z,74.31
2018-04-02T08:22:39.375Z,73.45
2018-04-02T08:23:32.206Z,73.45
2018-04-02T08:24:42.553Z,73.45
2018-04-02T08:25:54.749Z,73.65
2018-04-02T08:26:53.830Z,73.83
2018-04-02T08:28:09.097Z,74.40
2018-04-02T08:30:10.338Z,74.82
2018-04-02T08:31:14.849Z,73.49
2018-04-02T08:32:33.934Z,73.68
2018-04-02T08:33:23.978Z,72.25
2018-04-02T08:35:37.718Z,71.77
2018-04-02T08:36:38.539Z,71.87
2018-04-02T08:37:52.577Z,72.53
2018-04-02T08:38:51.813Z,72.25
2018-04-02T08:42:10.328Z,71.87
2018-04-02T08:43:13.503Z,71.87
2018-04-02T08:44:22.858Z,72.16
2018-04-02T08:45:37.173Z,72.63
2018-04-02T08:47:58.079Z,71.87
2018-04-02T08:49:36.071Z,70.44
2018-04-02T08:50:01.638Z,70.34
2018-04-02T08:53:26.069Z,70.76
2018-04-02T08:56:43.799Z,70.86
2018-04-02T08:59:56.162Z,70.86
2018-04-02T09:01:17.423Z,70.38
2018-04-02T09:02:21.122Z,69.71
2018-04-02T09:05:27.072Z,70.42
2018-04-02T09:07:40.404Z,70.03
2018-04-02T09:10:44.079Z,68.98
2018-04-02T09:11:58.330Z,69.17
2018-04-02T09:13:01.126Z,68.41
2018-04-02T09:14:19.061Z,68.79
2018-04-02T09:15:30.158Z,67.65
2018-04-02T09:16:14.339Z,66.60
2018-04-02T09:18:39.919Z,66.02
2018-04-02T09:19:35.874Z,65.36
2018-04-02T09:21:45.738Z,66.12
2018-04-02T09:22:52.807Z,66.41
2018-04-02T09:23:48.615Z,66.78
2018-04-02T09:26:02.659Z,66.02
2018-04-02T09:27:13.419Z,66.31
2018-04-02T09:30:33.824Z,65.96
2018-04-02T09:31:31.988Z,65.01
2018-04-02T09:32:48.685Z,65.48
2018-04-02T09:33:38.967Z,65.01
2018-04-02T09:35:53.112Z,64.34
2018-04-02T09:37:00.082Z,64.62
2018-04-02T09:38:03.987Z,64.72
2018-04-02T09:39:09.980Z,64.72
2018-04-02T09:40:17.919Z,65.39
2018-04-02T09:41:26.015Z,64.62
2018-04-02T09:43:32.382Z,64.15
2018-04-02T09:44:38.528Z,64.15
2018-04-02T09:45:38.539Z,64.43
2018-04-02T09:46:52.162Z,64.34
2018-04-02T09:47:53.095Z,63.86
2018-04-02T09:49:11.328Z,62.24
2018-04-02T09:50:04.166Z,62.43
2018-04-02T09:51:03.763Z,63.00
2018-04-02T09:52:13.804Z,63.86
2018-04-02T09:53:36.342Z,62.15
2018-04-02T09:54:27.165Z,62.05
2018-04-02T09:55:33.385Z,62.43
2018-04-02T09:56:41.072Z,62.91
2018-04-02T09:57:48.247Z,63.86
2018-04-02T10:00:00.548Z,63.00
2018-04-02T10:02:02.719Z,62.71
2018-04-02T10:03:04.255Z,63.29
2018-04-02T10:04:19.930Z,63.86
2018-04-02T10:05:20.454Z,63.99
2018-04-02T10:06:34.699Z,62.81
2018-04-02T10:07:39.817Z,62.75
2018-04-02T10:08:45.047Z,62.15
2018-04-02T10:09:50.897Z,62.62
2018-04-02T10:10:52.638Z,62.52
2018-04-02T10:12:01.349Z,62.84
2018-04-02T10:13:07.807Z,62.24
2018-04-02T10:14:06.073Z,62.37
2018-04-02T10:15:18.982Z,61.89
2018-04-02T10:16:13.154Z,61.98
2018-04-02T10:17:23.402Z,61.98
2018-04-02T10:18:33.647Z,62.55
2018-04-02T10:19:37.545Z,61.32
2018-04-02T10:20:39.397Z,62.55
2018-04-02T10:21:44.529Z,62.27
2018-04-02T10:22:48.019Z,61.22
2018-04-02T10:24:04.270Z,59.88
2018-04-02T10:25:11.576Z,61.13
2018-04-02T10:26:20.495Z,60.84
2018-04-02T10:27:18.861Z,59.78
2018-04-02T10:30:29.744Z,60.27
2018-04-02T10:33:49.111Z,59.88
2018-04-02T10:34:49.630Z,58.64
2018-04-02T10:36:06.437Z,58.83
2018-04-02T10:36:54.661Z,58.93
2018-04-02T10:38:14.533Z,58.26
2018-04-02T10:39:28.063Z,58.26
2018-04-02T10:40:26.232Z,59.50
2018-04-02T10:42:32.198Z,58.58
2018-04-02T10:44:02.936Z,56.92
2018-04-02T10:45:12.179Z,57.62
2018-04-02T10:45:55.648Z,57.68
2018-04-02T10:48:04.365Z,58.29
2018-04-02T10:49:07.978Z,58.48
2018-04-02T10:50:20.355Z,58.58
2018-04-02T10:51:19.437Z,59.81
2018-04-02T10:52:24.565Z,59.63
2018-04-02T10:54:45.061Z,57.24
2018-04-02T10:55:47.194Z,57.81
2018-04-02T10:56:57.776Z,57.14
2018-04-02T10:57:52.250Z,57.33
2018-04-02T10:59:06.388Z,56.76
2018-04-02T11:00:11.208Z,57.24
2018-04-02T11:01:12.344Z,57.24
2018-04-02T11:02:45.731Z,57.81
2018-04-02T11:03:22.902Z,57.62
2018-04-02T11:04:16.149Z,56.95
2018-04-02T11:05:27.626Z,57.24
2018-04-02T11:06:45.757Z,57.04
2018-04-02T11:07:52.727Z,57.14
2018-04-02T11:08:52.121Z,57.24
2018-04-02T11:10:25.817Z,57.04
2018-04-02T11:11:24.186Z,58.48
2018-04-02T11:12:22.146Z,57.75
2018-04-02T11:13:16.973Z,57.55
2018-04-02T11:14:39.680Z,56.79
2018-04-02T11:15:34.659Z,57.17
2018-04-02T11:16:35.837Z,55.74
2018-04-02T11:18:18.405Z,56.12
2018-04-02T11:21:08.281Z,56.02
2018-04-02T11:22:03.680Z,56.02
2018-04-02T11:23:00.206Z,55.93
2018-04-02T11:24:13.227Z,55.45
2018-04-02T11:25:24.077Z,55.26
2018-04-02T11:26:38.525Z,55.26
2018-04-02T11:27:56.556Z,54.39
2018-04-02T11:28:56.722Z,54.88
2018-04-02T11:29:52.272Z,55.16
2018-04-02T11:31:08.760Z,54.68
2018-04-02T11:32:50.961Z,56.02
2018-04-02T11:34:33.159Z,55.45
2018-04-02T11:36:47.708Z,56.02
2018-04-02T11:38:28.264Z,55.74
2018-04-02T11:39:59.610Z,55.74
2018-04-02T11:40:47.430Z,55.45
2018-04-02T11:41:55.218Z,54.78
2018-04-02T11:42:50.111Z,55.19
2018-04-02T11:43:51.238Z,54.68
2018-04-02T11:45:13.877Z,55.38
2018-04-02T11:45:54.733Z,55.29
2018-04-02T11:46:55.358Z,54.80
2018-04-02T11:48:11.665Z,54.43
2018-04-02T11:50:28.351Z,54.23
2018-04-02T11:51:20.984Z,54.04
2018-04-02T11:53:42.093Z,54.68
2018-04-02T11:54:57.971Z,54.39
2018-04-02T11:55:42.209Z,54.78
2018-04-02T11:57:10.071Z,53.53
2018-04-02T11:57:59.834Z,54.49
2018-04-02T11:58:58.621Z,54.59
2018-04-02T12:00:30.672Z,54.68
2018-04-02T12:01:11.326Z,55.35
2018-04-02T12:02:18.296Z,55.07
2018-04-02T12:04:37.971Z,54.39
2018-04-02T12:05:39.001Z,55.00
2018-04-02T12:06:52.934Z,53.66
2018-04-02T12:07:47.725Z,54.43
2018-04-02T12:08:49.671Z,54.52
2018-04-02T12:09:54.492Z,53.94
2018-04-02T12:12:13.245Z,53.75
2018-04-02T12:13:12.334Z,53.18
2018-04-02T12:15:35.283Z,53.75
2018-04-02T12:16:31.909Z,53.18
2018-04-02T12:17:40.935Z,53.66
2018-04-02T12:18:36.736Z,53.08
2018-04-02T12:19:41.862Z,53.56
2018-04-02T12:20:51.554Z,52.32
2018-04-02T12:21:58.671Z,52.42
2018-04-02T12:22:58.472Z,53.28
2018-04-02T12:25:11.597Z,53.97
2018-04-02T12:26:19.282Z,53.78
2018-04-02T12:27:26.050Z,54.45
2018-04-02T12:28:39.983Z,54.64
2018-04-02T12:30:36.616Z,52.83
2018-04-02T12:31:48.705Z,53.20
2018-04-02T12:32:54.960Z,52.09
2018-04-02T12:33:57.326Z,53.33
2018-04-02T12:35:07.775Z,53.91
2018-04-02T12:36:08.805Z,52.47
2018-04-02T12:37:13.630Z,52.75
2018-04-02T12:38:24.897Z,52.56
2018-04-02T12:39:31.150Z,53.64
2018-04-02T12:41:38.945Z,51.44
2018-04-02T12:42:53.598Z,51.06
2018-04-02T12:43:42.542Z,52.50
2018-04-02T12:47:12.059Z,49.05
2018-04-02T12:48:02.235Z,47.42
2018-04-02T12:49:17.497Z,48.47
2018-04-02T12:50:26.620Z,48.28
2018-04-02T12:53:48.758Z,48.57
2018-04-02T12:54:57.469Z,49.43
2018-04-02T12:55:51.756Z,47.80
2018-04-02T12:56:56.254Z,48.75
2018-04-02T12:59:04.815Z,47.89
2018-04-02T13:00:17.163Z,48.38
2018-04-02T13:01:30.892Z,47.13
2018-04-02T13:02:25.573Z,47.42
2018-04-02T13:03:29.678Z,46.75
2018-04-02T13:04:36.654Z,47.22
2018-04-02T13:05:46.691Z,46.65
2018-04-02T13:06:43.010Z,47.22
2018-04-02T13:10:07.299Z,46.48
2018-04-02T13:12:07.519Z,45.72
2018-04-02T13:13:15.922Z,45.33
2018-04-02T13:14:22.892Z,44.47
2018-04-02T13:15:36.322Z,45.62
2018-04-02T13:16:44.719Z,46.19
2018-04-02T13:17:36.031Z,44.95
2018-04-02T13:18:40.227Z,44.56
2018-04-02T13:19:49.347Z,44.85
2018-04-02T13:21:02.772Z,45.33
2018-04-02T13:21:59.611Z,46.00
2018-04-02T13:23:10.771Z,44.95
2018-04-02T13:24:08.118Z,44.76
2018-04-02T13:25:13.753Z,45.90
2018-04-02T13:26:15.091Z,46.10
2018-04-02T13:27:30.357Z,46.03
2018-04-02T13:28:30.774Z,44.68
2018-04-02T13:29:33.852Z,44.49
2018-04-02T13:31:02.124Z,43.82
2018-04-02T13:33:02.349Z,42.55
2018-04-02T13:36:10.666Z,43.77
2018-04-02T13:37:12.506Z,43.59
2018-04-02T13:38:20.910Z,43.59
2018-04-02T13:39:36.893Z,44.26
2018-04-02T13:40:38.845Z,45.59
2018-04-02T13:41:42.949Z,45.96
2018-04-02T13:42:44.389Z,45.57
2018-04-02T13:43:52.495Z,44.43
2018-04-02T13:46:01.314Z,45.29
2018-04-02T13:48:14.119Z,46.25
2018-04-02T13:49:11.053Z,46.31
2018-04-02T13:50:24.885Z,46.51
2018-04-02T13:51:26.531Z,47.18
2018-04-02T13:52:31.248Z,46.22
2018-04-02T13:53:37.911Z,46.70
2018-04-02T13:54:44.879Z,47.27
2018-04-02T13:55:46.118Z,47.56
2018-04-02T13:56:52.984Z,47.18
2018-04-02T13:59:07.234Z,45.84
2018-04-02T14:00:18.297Z,46.80
2018-04-02T14:01:16.669Z,47.37
2018-04-02T14:02:18.627Z,47.08
2018-04-02T14:03:23.234Z,47.37
2018-04-02T14:04:36.655Z,47.47
2018-04-02T14:05:44.449Z,47.37
2018-04-02T14:06:47.013Z,47.66
2018-04-02T14:07:46.610Z,48.49
2018-04-02T14:08:53.266Z,47.34
2018-04-02T14:10:06.592Z,48.23
2018-04-02T14:11:12.132Z,48.30
2018-04-02T14:12:11.848Z,48.13
2018-04-02T14:13:21.869Z,47.63
2018-04-02T14:14:19.625Z,47.47
2018-04-02T14:15:29.769Z,47.73
2018-04-02T14:16:33.466Z,48.61
2018-04-02T14:17:41.866Z,48.52
2018-04-02T14:18:46.177Z,49.38
2018-04-02T14:19:52.429Z,50.52
2018-04-02T14:22:04.012Z,48.13
2018-04-02T14:23:13.953Z,49.55
2018-04-02T14:24:11.706Z,49.16
2018-04-02T14:25:17.858Z,48.71
2018-04-02T14:26:22.996Z,48.11
2018-04-02T14:27:22.788Z,48.59
2018-04-02T14:29:56.711Z,49.64
2018-04-02T14:30:48.510Z,49.55
2018-04-02T14:31:47.494Z,50.31
2018-04-02T14:33:06.241Z,48.97
2018-04-02T14:34:05.944Z,49.64
2018-04-02T14:35:13.012Z,48.59
2018-04-02T14:36:15.681Z,48.97
2018-04-02T14:37:22.652Z,49.64
2018-04-02T14:38:18.873Z,49.64
2018-04-02T14:39:23.383Z,49.45
2018-04-02T14:40:34.141Z,49.35
2018-04-02T14:41:50.541Z,49.74
2018-04-02T14:42:47.979Z,51.29
2018-04-02T14:47:10.544Z,49.76
2018-04-02T14:48:18.633Z,50.24
2018-04-02T14:49:19.355Z,49.66
2018-04-02T14:50:26.430Z,48.61
2018-04-02T14:51:28.176Z,50.15
2018-04-02T14:52:30.538Z,49.66
2018-04-02T14:53:36.178Z,49.66
2018-04-02T14:54:54.109Z,49.66
2018-04-02T14:56:03.123Z,50.05
2018-04-02T14:58:02.739Z,50.52
2018-04-02T14:59:12.974Z,49.95
2018-04-02T15:00:15.645Z,49.69
2018-04-02T15:01:14.329Z,49.79
2018-04-02T15:02:29.073Z,48.64
2018-04-02T15:03:30.104Z,48.83
2018-04-02T15:04:39.225Z,49.69
2018-04-02T15:05:41.181Z,48.83
2018-04-02T15:06:42.932Z,49.79
2018-04-02T15:09:05.176Z,48.64
2018-04-02T15:10:13.153Z,47.68
2018-04-02T15:11:03.023Z,47.20
2018-04-02T15:12:15.420Z,47.20
2018-04-02T15:14:26.597Z,47.20
2018-04-02T15:15:39.199Z,48.16
2018-04-02T15:17:39.930Z,47.68
2018-04-02T15:18:47.821Z,47.20
2018-04-02T15:19:46.923Z,47.87
2018-04-02T15:20:58.177Z,47.87
2018-04-02T15:22:10.268Z,47.87
2018-04-02T15:24:15.813Z,47.66
2018-04-02T15:28:47.994Z,48.42
2018-04-02T15:31:59.891Z,50.15
2018-04-02T15:32:57.748Z,51.39
2018-04-02T15:34:05.538Z,51.20
2018-04-02T15:35:07.705Z,51.48
2018-04-02T15:36:13.233Z,51.68
2018-04-02T15:37:20.513Z,52.06
2018-04-02T15:38:29.322Z,51.39
2018-04-02T15:39:29.126Z,51.29
2018-04-02T15:40:45.004Z,52.73
2018-04-02T15:41:47.878Z,51.48
2018-04-02T15:42:52.799Z,51.29
2018-04-02T15:43:55.675Z,51.68
2018-04-02T15:45:06.640Z,51.58
2018-04-02T15:46:04.709Z,52.25
2018-04-02T15:47:11.777Z,52.51
2018-04-02T15:49:29.003Z,52.25
2018-04-02T15:50:28.895Z,52.34
2018-04-02T15:51:31.974Z,52.63
2018-04-02T15:53:42.637Z,52.70
2018-04-02T15:54:57.214Z,54.14
2018-04-02T15:55:53.914Z,55.29
2018-04-02T15:58:09.407Z,58.44
2018-04-02T15:59:13.292Z,57.97
2018-04-02T16:00:17.188Z,58.34
2018-04-02T16:03:25.709Z,58.63
2018-04-02T16:04:35.751Z,59.20
2018-04-02T16:05:47.230Z,60.06
2018-04-02T16:06:49.386Z,59.97
2018-04-02T16:07:53.392Z,59.59
2018-04-02T16:08:58.204Z,59.69
2018-04-02T16:10:09.885Z,58.63
2018-04-02T16:11:17.989Z,57.48
2018-04-02T16:12:20.347Z,57.01
2018-04-02T16:13:22.707Z,56.72
2018-04-02T16:14:32.754Z,57.10
2018-04-02T16:15:34.812Z,57.77
2018-04-02T16:16:48.238Z,58.34
2018-04-02T16:17:42.600Z,57.87
2018-04-02T16:18:56.636Z,57.87
2018-04-02T16:20:14.575Z,57.10
2018-04-02T16:22:09.976Z,57.68
2018-04-02T16:23:25.133Z,57.68
2018-04-02T16:25:25.254Z,57.10
2018-04-02T16:26:29.452Z,57.10
2018-04-02T16:27:39.803Z,56.91
2018-04-02T16:30:51.299Z,57.68
2018-04-02T16:32:08.202Z,57.87
2018-04-02T16:33:11.688Z,57.68
2018-04-02T16:34:09.642Z,57.20
2018-04-02T16:35:19.380Z,56.91
2018-04-02T16:37:25.842Z,56.91
2018-04-02T16:38:32.812Z,55.38